Time;durP1;ratioP1;P1;durP2;ratioP2;P2;SDS_P1;SDS_P2;PMS_P1;PMS_P2;Temp;Humidity;BMP_temperature;BMP_pressure;BME280_temperature;BME280_humidity;BME280_pressure;Samples;Min_cycle;Max_cycle;Signal;HPM_P1;HPM_P2
2024/03/02 00:01:11;;;;;;;12.57;8.02;;;6.90;99.90;;;;;;5030088;28;20064;-54
2024/03/02 00:03:38;;;;;;;7.65;6.57;;;6.90;99.90;;;;;;5013735;28;20393;-52
2024/03/02 00:06:04;;;;;;;10.63;7.65;;;6.90;99.90;;;;;;5029804;28;20037;-52
2024/03/02 00:08:30;;;;;;;7.78;6.95;;;6.70;99.90;;;;;;5029311;28;20167;-51
2024/03/02 00:10:58;;;;;;;9.77;7.45;;;6.60;99.90;;;;;;5029566;28;20108;-49
2024/03/02 00:13:24;;;;;;;13.73;7.65;;;6.50;99.90;;;;;;5029383;28;20021;-55
2024/03/02 00:15:56;;;;;;;11.77;8.48;;;6.40;99.90;;;;;;5029790;28;20033;-50
2024/03/02 00:18:32;;;;;;;10.35;7.72;;;6.40;99.90;;;;;;5028930;28;20602;-52
2024/03/02 00:20:59;;;;;;;10.93;8.48;;;6.30;99.90;;;;;;5017138;28;20029;-48
2024/03/02 00:23:27;;;;;;;11.27;7.57;;;6.30;99.90;;;;;;5030398;28;20033;-52
2024/03/02 00:25:55;;;;;;;8.88;7.55;;;6.20;99.90;;;;;;5007874;28;20469;-48
2024/03/02 00:28:26;;;;;;;11.30;7.32;;;6.10;99.90;;;;;;4991158;28;20113;-54
2024/03/02 00:31:01;;;;;;;11.57;7.50;;;6.10;99.90;;;;;;5028550;28;20030;-51
2024/03/02 00:33:30;;;;;;;13.52;8.32;;;6.10;99.90;;;;;;5029239;28;20040;-53
2024/03/02 00:35:56;;;;;;;11.48;8.25;;;6.10;99.90;;;;;;5029301;28;20119;-50
2024/03/02 00:38:22;;;;;;;7.65;6.60;;;6.00;99.90;;;;;;5030222;28;20104;-53
2024/03/02 00:40:48;;;;;;;7.68;6.88;;;5.90;99.90;;;;;;5029316;28;20022;-51
2024/03/02 00:43:43;;;;;;;7.35;6.55;;;5.80;99.90;;;;;;5029003;28;20129;-58
2024/03/02 00:46:11;;;;;;;8.37;6.67;;;5.80;99.90;;;;;;5028931;28;20520;-52
2024/03/02 00:48:36;;;;;;;15.73;10.93;;;5.80;99.90;;;;;;5028076;28;20026;-50
2024/03/02 00:51:06;;;;;;;23.80;16.13;;;5.90;99.90;;;;;;5028107;28;20028;-55
2024/03/02 00:53:32;;;;;;;27.60;16.10;;;5.90;99.90;;;;;;5028982;28;20040;-56
2024/03/02 00:55:59;;;;;;;9.95;6.97;;;5.90;99.90;;;;;;5043609;28;20020;-52
2024/03/02 00:58:25;;;;;;;7.22;6.47;;;5.80;99.90;;;;;;5056272;28;20582;-54
2024/03/02 01:00:50;;;;;;;8.20;6.60;;;6.00;99.90;;;;;;5048730;28;20029;-54
2024/03/02 01:03:16;;;;;;;9.15;6.82;;;6.00;99.90;;;;;;5048714;28;20595;-53
2024/03/02 01:05:45;;;;;;;8.60;6.70;;;5.80;99.90;;;;;;5048301;28;20040;-50
2024/03/02 01:08:11;;;;;;;9.38;6.97;;;5.70;99.90;;;;;;5036222;23;20158;-49
2024/03/02 01:10:36;;;;;;;8.60;5.95;;;5.60;99.90;;;;;;5029982;28;20066;-49
2024/03/02 01:13:02;;;;;;;12.25;7.00;;;5.50;99.90;;;;;;5030419;28;20022;-47
2024/03/02 01:15:27;;;;;;;9.63;6.50;;;5.40;99.90;;;;;;5030015;28;20017;-49
2024/03/02 01:17:53;;;;;;;9.60;6.18;;;5.40;99.90;;;;;;5030021;28;20033;-45
2024/03/02 01:20:18;;;;;;;8.40;6.60;;;5.50;99.90;;;;;;5030102;28;20087;-46
2024/03/02 01:22:44;;;;;;;9.75;6.82;;;5.50;99.90;;;;;;5031339;28;20038;-46
2024/03/02 01:25:10;;;;;;;12.18;6.63;;;5.50;99.90;;;;;;5031387;28;20560;-48
2024/03/02 01:27:35;;;;;;;7.90;6.13;;;5.50;99.90;;;;;;5031141;28;20026;-48
2024/03/02 01:30:00;;;;;;;7.47;6.45;;;5.60;99.90;;;;;;5031410;28;20104;-46
2024/03/02 01:32:26;;;;;;;12.27;7.05;;;5.60;99.90;;;;;;5029988;28;20515;-46
2024/03/02 01:34:52;;;;;;;9.88;6.65;;;5.60;99.90;;;;;;5031623;28;20029;-47
2024/03/02 01:37:17;;;;;;;13.15;7.18;;;5.60;99.90;;;;;;5031087;28;20105;-49
2024/03/02 01:39:43;;;;;;;8.73;6.35;;;5.60;99.90;;;;;;5031999;28;20599;-47
2024/03/02 01:42:10;;;;;;;9.48;7.25;;;5.60;99.90;;;;;;5035014;28;20096;-46
2024/03/02 01:44:36;;;;;;;9.10;6.65;;;5.50;99.90;;;;;;5035419;28;20021;-51
2024/03/02 01:47:01;;;;;;;9.48;6.82;;;5.40;99.90;;;;;;5034976;28;20021;-52
2024/03/02 01:49:27;;;;;;;8.05;7.00;;;5.30;99.90;;;;;;5035081;28;20034;-49
2024/03/02 01:51:53;;;;;;;8.80;6.80;;;5.20;99.90;;;;;;5034917;28;20425;-50
2024/03/02 01:54:18;;;;;;;8.32;7.03;;;5.10;99.90;;;;;;5034788;28;20052;-48
2024/03/02 01:56:44;;;;;;;11.65;8.10;;;5.00;99.90;;;;;;5034818;28;20386;-47
2024/03/02 01:59:09;;;;;;;12.32;8.95;;;5.00;99.90;;;;;;5034742;28;20032;-47
2024/03/02 02:01:35;;;;;;;14.80;9.20;;;5.00;99.90;;;;;;5034970;28;20028;-46
2024/03/02 02:04:01;;;;;;;11.90;9.40;;;5.10;99.90;;;;;;5035068;28;20026;-48
2024/03/02 02:06:26;;;;;;;17.27;9.55;;;4.80;99.90;;;;;;5035445;28;20416;-51
2024/03/02 02:08:52;;;;;;;13.57;9.35;;;5.00;99.90;;;;;;5035166;28;20069;-48
2024/03/02 02:11:17;;;;;;;13.73;9.05;;;4.90;99.90;;;;;;5033517;28;20025;-49
2024/03/02 02:13:43;;;;;;;11.50;10.05;;;4.90;99.90;;;;;;5034810;28;20036;-48
2024/03/02 02:16:09;;;;;;;13.50;10.35;;;4.90;99.90;;;;;;5034818;28;20030;-51
2024/03/02 02:18:35;;;;;;;15.73;10.13;;;5.00;99.90;;;;;;5034335;28;20120;-45
2024/03/02 02:21:01;;;;;;;14.43;10.45;;;5.00;99.90;;;;;;5034717;28;20018;-49
2024/03/02 02:23:27;;;;;;;14.43;10.23;;;5.00;99.90;;;;;;5033249;28;20472;-49
2024/03/02 02:25:53;;;;;;;13.13;9.45;;;5.10;99.90;;;;;;5034466;28;20091;-46
2024/03/02 02:28:19;;;;;;;16.75;9.80;;;5.10;99.90;;;;;;5034243;28;20025;-46
2024/03/02 02:30:44;;;;;;;12.25;9.02;;;5.10;99.90;;;;;;5034466;28;20041;-49
2024/03/02 02:33:10;;;;;;;12.73;9.30;;;5.10;99.90;;;;;;5034477;28;20113;-49
2024/03/02 02:35:35;;;;;;;12.15;9.43;;;5.10;99.90;;;;;;5034404;28;20033;-52
2024/03/02 02:38:02;;;;;;;14.25;9.55;;;5.10;99.90;;;;;;5034144;28;20037;-50
2024/03/02 02:40:31;;;;;;;11.68;8.88;;;5.10;99.90;;;;;;5034344;28;20104;-48
2024/03/02 02:42:57;;;;;;;12.57;8.48;;;5.10;99.90;;;;;;5034129;28;20017;-49
2024/03/02 02:45:23;;;;;;;11.77;8.55;;;5.10;99.90;;;;;;5034184;28;20055;-50
2024/03/02 02:47:48;;;;;;;11.30;8.82;;;5.00;99.90;;;;;;5033803;28;20501;-51
2024/03/02 02:50:14;;;;;;;19.67;9.30;;;5.00;99.90;;;;;;5033951;28;20045;-49
2024/03/02 02:52:41;;;;;;;12.02;8.88;;;5.10;99.90;;;;;;5033292;28;20508;-47
2024/03/02 02:55:12;;;;;;;14.82;9.25;;;5.00;99.90;;;;;;5033782;28;20083;-49
2024/03/02 02:57:42;;;;;;;14.60;10.02;;;5.10;99.90;;;;;;5033627;28;20036;-47
2024/03/02 03:00:10;;;;;;;10.35;9.25;;;5.10;99.90;;;;;;5033960;28;20017;-49
2024/03/02 03:02:37;;;;;;;11.27;8.27;;;5.20;99.90;;;;;;5033695;28;20013;-48
2024/03/02 03:05:03;;;;;;;14.90;10.15;;;5.10;99.90;;;;;;5033872;28;20024;-48
2024/03/02 03:07:28;;;;;;;12.90;9.88;;;5.20;99.90;;;;;;5034006;28;20104;-53
2024/03/02 03:09:54;;;;;;;15.20;9.75;;;5.20;99.90;;;;;;5033559;28;20037;-50
2024/03/02 03:12:19;;;;;;;13.55;9.68;;;5.20;99.90;;;;;;5033601;28;20112;-51
2024/03/02 03:14:45;;;;;;;15.55;10.85;;;5.20;99.90;;;;;;5033539;28;20025;-48
2024/03/02 03:17:10;;;;;;;16.00;11.20;;;5.40;99.90;;;;;;5033328;28;20044;-50
2024/03/02 03:19:38;;;;;;;19.27;11.50;;;5.40;99.90;;;;;;5033435;28;20143;-50
2024/03/02 03:22:04;;;;;;;13.75;10.63;;;5.40;99.90;;;;;;5033579;28;20040;-48
2024/03/02 03:24:29;;;;;;;16.40;10.65;;;5.40;99.90;;;;;;5033425;28;20167;-51
2024/03/02 03:26:55;;;;;;;16.02;11.35;;;5.30;99.90;;;;;;5033246;28;20025;-50
2024/03/02 03:29:20;;;;;;;13.57;9.55;;;5.30;99.90;;;;;;5033182;28;20033;-47
2024/03/02 03:31:46;;;;;;;17.30;12.18;;;5.40;99.90;;;;;;5033164;28;20025;-50
2024/03/02 03:34:15;;;;;;;15.43;11.02;;;5.50;99.90;;;;;;5031897;28;20036;-53
2024/03/02 03:36:41;;;;;;;18.65;11.55;;;5.40;99.90;;;;;;5033062;28;20017;-47
2024/03/02 03:39:06;;;;;;;17.75;12.27;;;5.30;99.90;;;;;;5032775;28;20017;-46
2024/03/02 03:41:32;;;;;;;18.10;13.00;;;5.20;99.90;;;;;;5033019;28;20022;-51
2024/03/02 03:43:58;;;;;;;20.10;10.90;;;5.10;99.90;;;;;;5032999;28;20473;-52
2024/03/02 03:46:23;;;;;;;15.52;9.98;;;5.10;99.90;;;;;;5032787;28;20036;-50
2024/03/02 03:48:49;;;;;;;12.45;9.07;;;5.00;99.90;;;;;;5032911;28;20029;-49
2024/03/02 03:51:14;;;;;;;18.10;9.35;;;5.00;99.90;;;;;;5032947;28;20052;-48
2024/03/02 03:53:40;;;;;;;17.50;11.60;;;4.90;99.90;;;;;;5032759;28;20512;-48
2024/03/02 03:56:05;;;;;;;22.48;13.35;;;4.90;99.90;;;;;;5031468;28;20041;-49
2024/03/02 03:58:31;;;;;;;20.15;12.95;;;4.90;99.90;;;;;;5032502;28;20021;-48
2024/03/02 04:00:56;;;;;;;20.58;12.93;;;5.20;99.90;;;;;;5032608;28;20033;-52
2024/03/02 04:03:22;;;;;;;23.73;13.75;;;5.30;99.90;;;;;;5031564;28;20370;-47
2024/03/02 04:05:47;;;;;;;20.88;13.55;;;5.30;99.90;;;;;;5032491;28;20079;-47
2024/03/02 04:08:13;;;;;;;16.95;11.48;;;5.30;99.90;;;;;;5032153;28;20095;-50
2024/03/02 04:10:40;;;;;;;19.98;12.90;;;5.10;99.90;;;;;;5032488;28;20022;-47
2024/03/02 04:13:05;;;;;;;16.95;11.25;;;4.90;99.90;;;;;;5032325;28;20079;-46
2024/03/02 04:15:31;;;;;;;15.35;9.80;;;4.70;99.90;;;;;;5032344;28;20026;-53
2024/03/02 04:17:56;;;;;;;16.25;10.57;;;4.60;99.90;;;;;;5032077;28;20029;-47
2024/03/02 04:20:22;;;;;;;16.98;11.70;;;4.60;99.90;;;;;;5032501;28;20500;-47
2024/03/02 04:22:47;;;;;;;15.20;11.25;;;4.50;99.90;;;;;;5032223;28;20060;-50
2024/03/02 04:25:13;;;;;;;18.92;13.05;;;4.50;99.90;;;;;;5032202;28;20032;-50
2024/03/02 04:27:38;;;;;;;18.88;12.55;;;4.50;99.90;;;;;;5031939;28;20053;-47
2024/03/02 04:30:05;;;;;;;13.88;10.45;;;4.50;99.90;;;;;;5032058;28;20032;-47
2024/03/02 04:32:31;;;;;;;17.95;12.23;;;4.40;99.90;;;;;;5032083;28;20036;-50
2024/03/02 04:34:57;;;;;;;18.05;12.57;;;4.40;99.90;;;;;;5031979;28;20029;-48
2024/03/02 04:37:22;;;;;;;15.93;11.50;;;4.30;99.90;;;;;;5031671;28;20449;-47
2024/03/02 04:39:48;;;;;;;16.38;12.05;;;4.30;99.90;;;;;;5032261;28;20101;-51
2024/03/02 04:42:13;;;;;;;18.88;12.05;;;4.30;99.90;;;;;;5031939;28;20425;-48
2024/03/02 04:44:39;;;;;;;15.85;11.25;;;4.30;99.90;;;;;;5031829;28;20045;-48
2024/03/02 04:47:05;;;;;;;19.73;12.32;;;4.30;99.90;;;;;;5031993;28;20052;-49
2024/03/02 04:49:30;;;;;;;17.48;12.98;;;4.30;99.90;;;;;;5031778;28;20022;-51
2024/03/02 04:51:59;;;;;;;21.52;12.50;;;4.30;99.90;;;;;;5031934;28;20029;-52
2024/03/02 04:54:25;;;;;;;16.35;11.82;;;4.30;99.90;;;;;;5031840;28;20025;-50
2024/03/02 04:56:50;;;;;;;18.00;11.57;;;4.40;99.90;;;;;;5031702;28;20397;-51
2024/03/02 04:59:17;;;;;;;20.20;13.50;;;4.40;99.90;;;;;;5031433;28;20029;-48
2024/03/02 05:01:44;;;;;;;21.52;13.48;;;4.50;99.90;;;;;;5031706;28;20100;-47
2024/03/02 05:04:11;;;;;;;16.90;12.05;;;4.50;99.90;;;;;;5030293;28;20021;-52
2024/03/02 05:06:38;;;;;;;20.10;13.13;;;4.50;99.90;;;;;;5031509;28;20393;-53
2024/03/02 05:09:03;;;;;;;16.25;12.63;;;4.50;99.90;;;;;;5031231;28;20041;-50
2024/03/02 05:11:46;;;;;;;25.40;13.48;;;4.40;99.90;;;;;;5031561;28;20112;-53
2024/03/02 05:14:11;;;;;;;16.48;11.05;;;4.40;99.90;;;;;;5031514;28;20026;-49
2024/03/02 05:16:38;;;;;;;19.85;13.45;;;4.40;99.90;;;;;;5031397;28;20037;-47
2024/03/02 05:19:06;;;;;;;18.95;11.73;;;4.50;99.90;;;;;;5031187;28;20405;-46
2024/03/02 05:21:32;;;;;;;18.17;12.45;;;4.50;99.90;;;;;;5031530;28;20025;-49
2024/03/02 05:23:57;;;;;;;19.10;12.88;;;4.40;99.90;;;;;;5031538;28;20029;-52
2024/03/02 05:26:23;;;;;;;19.30;11.80;;;4.20;99.90;;;;;;5031369;28;20484;-47
2024/03/02 05:28:48;;;;;;;19.02;12.52;;;4.10;99.90;;;;;;5031217;28;20040;-51
2024/03/02 05:31:17;;;;;;;19.83;13.00;;;4.10;99.90;;;;;;5031476;28;20408;-51
2024/03/02 05:33:43;;;;;;;18.38;13.45;;;4.00;99.90;;;;;;5031301;28;20029;-50
2024/03/02 05:36:09;;;;;;;20.27;13.45;;;4.00;99.90;;;;;;5030058;28;20025;-47
2024/03/02 05:38:35;;;;;;;22.27;12.93;;;3.90;99.90;;;;;;5031545;28;20529;-49
2024/03/02 05:41:01;;;;;;;20.40;14.15;;;3.90;99.90;;;;;;5031172;28;20447;-53
2024/03/02 05:43:26;;;;;;;24.75;14.98;;;3.90;99.90;;;;;;5031156;28;20022;-49
2024/03/02 05:45:52;;;;;;;30.02;16.30;;;4.00;99.90;;;;;;5031123;28;20440;-48
2024/03/02 05:48:17;;;;;;;26.02;16.30;;;4.10;99.90;;;;;;5029818;28;20030;-50
2024/03/02 05:50:43;;;;;;;28.88;16.30;;;4.20;99.90;;;;;;5031062;28;20436;-49
2024/03/02 05:53:08;;;;;;;24.10;15.05;;;4.20;99.90;;;;;;5031100;28;20044;-51
2024/03/02 05:55:34;;;;;;;22.00;14.55;;;4.10;99.90;;;;;;5031128;28;20037;-48
2024/03/02 06:00:31;;;;;;;24.67;15.95;;;4.00;99.90;;;;;;5031368;28;20022;-53
2024/03/02 06:02:56;;;;;;;24.10;16.67;;;4.00;99.90;;;;;;5031064;28;20517;-51
2024/03/02 06:05:22;;;;;;;24.33;15.85;;;4.00;99.90;;;;;;5029735;28;20029;-47
2024/03/02 06:07:47;;;;;;;23.10;15.70;;;3.90;99.90;;;;;;5030630;28;20045;-48
2024/03/02 06:10:14;;;;;;;26.08;16.15;;;3.90;99.90;;;;;;5030911;28;20029;-48
2024/03/02 06:12:39;;;;;;;25.17;15.40;;;3.90;99.90;;;;;;5031034;28;20026;-52
2024/03/02 06:15:05;;;;;;;22.20;14.20;;;3.90;99.90;;;;;;5030926;28;20048;-48
2024/03/02 06:17:30;;;;;;;21.55;14.40;;;3.90;99.90;;;;;;5031028;28;20108;-46
2024/03/02 06:19:56;;;;;;;19.48;13.35;;;3.90;99.90;;;;;;5030819;28;20408;-49
2024/03/02 06:22:24;;;;;;;22.27;16.30;;;4.00;99.90;;;;;;5030863;28;20036;-52
2024/03/02 06:24:50;;;;;;;26.05;17.85;;;4.00;99.90;;;;;;5030731;28;20013;-49
2024/03/02 06:27:16;;;;;;;28.85;17.63;;;4.20;99.90;;;;;;5031100;28;20021;-48
2024/03/02 06:29:41;;;;;;;28.02;15.88;;;4.30;99.90;;;;;;5034831;28;20056;-48
2024/03/02 06:32:07;;;;;;;24.63;16.83;;;4.40;99.90;;;;;;5034682;28;20029;-50
2024/03/02 06:34:32;;;;;;;26.85;15.82;;;4.40;99.90;;;;;;5034495;28;20021;-50
2024/03/02 06:36:58;;;;;;;26.88;16.48;;;4.30;99.90;;;;;;5034080;28;20396;-49
2024/03/02 06:39:24;;;;;;;23.90;15.38;;;4.30;99.90;;;;;;5034193;28;20100;-47
2024/03/02 06:41:49;;;;;;;29.35;18.05;;;4.30;99.90;;;;;;5034393;28;20392;-47
2024/03/02 06:44:14;;;;;;;23.65;16.45;;;4.30;99.90;;;;;;5032847;28;20078;-48
2024/03/02 06:46:40;;;;;;;29.23;16.65;;;4.40;99.90;;;;;;5034197;28;20021;-48
2024/03/02 06:49:06;;;;;;;24.15;16.40;;;4.40;99.90;;;;;;5033864;28;20026;-51
2024/03/02 06:51:33;;;;;;;27.85;17.95;;;4.50;99.90;;;;;;5034327;28;20029;-48
2024/03/02 06:53:59;;;;;;;28.17;19.23;;;4.40;99.90;;;;;;5034127;28;20512;-50
2024/03/02 06:56:24;;;;;;;27.85;19.20;;;4.40;99.90;;;;;;5033971;28;20037;-47
2024/03/02 06:58:50;;;;;;;24.70;17.45;;;4.30;99.90;;;;;;5033870;28;20033;-49
2024/03/02 07:01:15;;;;;;;26.98;17.85;;;4.30;99.90;;;;;;5034059;28;20113;-49
2024/03/02 07:03:41;;;;;;;24.65;15.40;;;4.30;99.90;;;;;;5032589;28;20397;-51
2024/03/02 07:06:06;;;;;;;23.00;14.82;;;4.20;99.90;;;;;;5034616;28;20049;-50
2024/03/02 07:08:32;;;;;;;25.95;14.40;;;4.30;99.90;;;;;;5046199;22;20069;-53
2024/03/02 07:10:57;;;;;;;28.52;16.65;;;4.30;99.90;;;;;;5014640;28;20085;-50
2024/03/02 07:13:23;;;;;;;25.83;16.52;;;4.30;99.90;;;;;;5029504;28;20030;-47
2024/03/02 07:16:21;;;;;;;29.10;18.85;;;4.30;99.90;;;;;;4996424;28;20497;-47
2024/03/02 07:18:45;;;;;;;30.52;18.65;;;4.40;99.90;;;;;;5013439;28;20061;-52
2024/03/02 07:21:10;;;;;;;26.27;17.02;;;4.60;99.90;;;;;;5014518;28;20030;-46
2024/03/02 07:23:36;;;;;;;26.80;19.67;;;4.60;99.90;;;;;;5014240;28;20099;-47
2024/03/02 07:26:03;;;;;;;29.83;20.50;;;4.70;99.90;;;;;;5018589;28;20036;-56
2024/03/02 07:28:28;;;;;;;27.33;18.45;;;4.80;99.90;;;;;;5034064;28;20025;-48
2024/03/02 07:31:04;;;;;;;33.63;20.88;;;5.10;99.90;;;;;;5033424;28;20083;-49
2024/03/02 07:33:33;;;;;;;24.05;15.52;;;5.80;99.90;;;;;;5030789;28;20029;-50
2024/03/02 07:36:01;;;;;;;20.83;13.60;;;7.20;99.90;;;;;;5032659;28;20029;-51
2024/03/02 07:38:28;;;;;;;15.82;11.82;;;7.20;99.90;;;;;;5032702;28;20034;-48
2024/03/02 07:40:53;;;;;;;15.88;11.45;;;7.90;99.90;;;;;;5032871;28;20025;-47
2024/03/02 07:43:19;;;;;;;21.63;11.55;;;8.50;99.90;;;;;;5031759;28;20394;-51
2024/03/02 07:45:45;;;;;;;20.08;11.55;;;8.60;99.90;;;;;;5032427;28;20029;-50
2024/03/02 07:48:11;;;;;;;15.90;11.98;;;8.50;99.90;;;;;;5031245;28;20123;-54
2024/03/02 07:50:38;;;;;;;19.75;12.75;;;8.20;99.90;;;;;;5031624;28;20061;-51
2024/03/02 07:53:04;;;;;;;16.70;11.80;;;7.80;99.90;;;;;;5032982;28;20477;-53
2024/03/02 07:55:30;;;;;;;19.45;13.82;;;7.70;99.90;;;;;;5032257;28;20101;-52
2024/03/02 07:57:56;;;;;;;19.08;13.45;;;7.80;99.90;;;;;;5032714;28;20061;-55
2024/03/02 08:00:23;;;;;;;18.88;12.15;;;7.50;99.90;;;;;;5031465;28;20032;-48
2024/03/02 08:02:50;;;;;;;19.60;13.70;;;7.30;99.90;;;;;;5032586;28;20025;-50
2024/03/02 08:05:16;;;;;;;17.98;13.20;;;7.20;99.90;;;;;;5031146;28;20559;-52
2024/03/02 08:07:44;;;;;;;19.98;14.00;;;7.10;99.90;;;;;;5032222;28;20026;-50
2024/03/02 08:10:10;;;;;;;22.38;15.65;;;7.00;99.90;;;;;;5032561;28;20037;-51
2024/03/02 08:12:35;;;;;;;21.95;14.68;;;6.90;99.90;;;;;;5032705;28;20474;-51
2024/03/02 08:15:01;;;;;;;20.70;14.80;;;6.70;99.90;;;;;;5033361;28;20072;-48
2024/03/02 08:17:26;;;;;;;22.10;14.70;;;6.70;99.90;;;;;;5032479;28;20025;-54
2024/03/02 08:19:52;;;;;;;22.15;14.55;;;6.70;99.90;;;;;;5032607;28;20027;-53
2024/03/02 08:22:18;;;;;;;26.70;15.80;;;6.60;99.90;;;;;;5032270;28;20033;-50
2024/03/02 08:24:44;;;;;;;21.92;14.85;;;6.60;99.90;;;;;;5030896;28;20025;-48
2024/03/02 08:27:09;;;;;;;22.95;15.55;;;6.60;99.90;;;;;;5031475;28;20060;-48
2024/03/02 08:29:35;;;;;;;21.38;15.52;;;6.50;99.90;;;;;;5032080;28;20187;-48
2024/03/02 08:32:01;;;;;;;18.15;13.82;;;6.40;99.90;;;;;;5032270;28;20033;-51
2024/03/02 08:34:26;;;;;;;21.98;15.52;;;6.50;99.90;;;;;;5032098;28;20040;-53
2024/03/02 08:36:52;;;;;;;23.30;15.68;;;6.60;99.90;;;;;;5031220;28;20044;-47
2024/03/02 08:39:19;;;;;;;21.45;15.07;;;6.60;99.90;;;;;;5031817;28;20370;-50
2024/03/02 08:41:45;;;;;;;26.25;16.40;;;6.60;99.90;;;;;;5031634;28;20479;-53
2024/03/02 08:44:12;;;;;;;24.42;17.23;;;6.70;99.90;;;;;;5031857;28;20105;-55
2024/03/02 08:46:38;;;;;;;25.10;16.20;;;6.70;99.90;;;;;;5031908;28;20025;-50
2024/03/02 08:49:04;;;;;;;23.98;16.58;;;6.90;99.90;;;;;;5031404;28;20053;-48
2024/03/02 08:51:29;;;;;;;21.10;14.30;;;6.90;99.90;;;;;;5031717;28;20049;-51
2024/03/02 08:53:55;;;;;;;22.52;16.35;;;6.80;99.90;;;;;;5030575;28;20028;-54
2024/03/02 08:56:23;;;;;;;21.23;15.13;;;7.00;99.90;;;;;;5031647;28;20017;-60
2024/03/02 08:58:49;;;;;;;22.02;15.35;;;7.00;99.90;;;;;;5033221;28;20018;-55
2024/03/02 09:01:14;;;;;;;26.92;15.95;;;7.00;99.90;;;;;;5033400;28;20017;-55
2024/03/02 09:03:41;;;;;;;20.65;13.95;;;7.20;99.90;;;;;;5031626;28;20427;-57
2024/03/02 09:06:06;;;;;;;20.40;14.45;;;7.20;99.90;;;;;;5045069;28;20030;-52
2024/03/02 09:08:32;;;;;;;23.77;14.95;;;7.30;99.90;;;;;;5042913;28;20033;-55
2024/03/02 09:10:57;;;;;;;25.92;14.88;;;7.50;99.90;;;;;;5034693;28;20029;-55
2024/03/02 09:13:23;;;;;;;22.15;14.65;;;7.60;99.90;;;;;;5034925;28;20547;-59
2024/03/02 09:15:49;;;;;;;20.58;14.40;;;7.70;99.90;;;;;;5038775;28;20037;-56
2024/03/02 09:18:14;;;;;;;20.13;13.23;;;7.90;99.90;;;;;;5032845;28;20449;-60
2024/03/02 09:20:39;;;;;;;17.38;12.35;;;8.00;99.90;;;;;;5035462;28;20105;-54
2024/03/02 09:23:05;;;;;;;18.60;12.43;;;8.10;99.90;;;;;;5037089;28;20033;-55
2024/03/02 09:25:31;;;;;;;19.50;13.10;;;8.30;99.90;;;;;;5044519;28;20101;-59
2024/03/02 09:27:56;;;;;;;19.17;12.50;;;8.40;99.90;;;;;;5031301;28;20045;-60
2024/03/02 09:30:22;;;;;;;18.73;12.60;;;8.40;99.90;;;;;;5030298;28;20023;-60
2024/03/02 09:32:47;;;;;;;18.95;13.75;;;8.50;99.90;;;;;;5030941;28;20026;-58
2024/03/02 09:35:13;;;;;;;20.88;13.75;;;8.50;99.90;;;;;;5031772;28;20025;-60
2024/03/02 09:37:38;;;;;;;21.55;13.35;;;8.70;99.90;;;;;;5031682;28;20528;-60
2024/03/02 09:40:06;;;;;;;19.67;12.63;;;9.00;99.90;;;;;;5029687;28;20049;-62
2024/03/02 09:42:32;;;;;;;17.80;12.65;;;9.40;99.90;;;;;;5031636;28;20026;-64
2024/03/02 09:44:57;;;;;;;14.00;10.50;;;10.00;99.90;;;;;;5029703;28;20043;-61
2024/03/02 09:47:23;;;;;;;17.15;10.90;;;11.00;99.90;;;;;;5031436;28;20026;-66
2024/03/02 09:49:49;;;;;;;14.60;10.93;;;11.70;99.90;;;;;;5030566;28;20037;-62
2024/03/02 09:52:15;;;;;;;16.92;10.70;;;11.60;99.90;;;;;;5031248;28;20029;-58
2024/03/02 09:54:41;;;;;;;16.27;11.02;;;11.50;99.90;;;;;;5030875;28;20216;-58
2024/03/02 09:57:07;;;;;;;18.98;10.88;;;11.30;99.90;;;;;;5048038;28;20033;-61
2024/03/02 09:59:32;;;;;;;16.30;11.07;;;11.40;99.90;;;;;;5045008;28;20083;-61
2024/03/02 10:01:58;;;;;;;13.45;9.90;;;11.30;99.90;;;;;;5032436;28;20018;-53
2024/03/02 10:04:26;;;;;;;17.20;10.77;;;11.20;99.90;;;;;;5030790;28;20018;-58
2024/03/02 10:07:01;;;;;;;19.23;12.50;;;11.00;99.90;;;;;;5035299;28;20025;-54
2024/03/02 10:09:30;;;;;;;16.38;11.57;;;10.80;99.90;;;;;;5036675;28;20182;-58
2024/03/02 10:12:04;;;;;;;17.35;11.65;;;10.80;99.90;;;;;;5038698;28;20026;-58
2024/03/02 10:14:29;;;;;;;14.82;10.85;;;10.70;99.90;;;;;;5038695;28;20108;-55
2024/03/02 10:17:04;;;;;;;14.57;11.20;;;10.70;99.90;;;;;;5034878;28;20113;-56
2024/03/02 10:19:34;;;;;;;16.67;10.70;;;10.70;99.90;;;;;;5033355;28;20022;-54
2024/03/02 10:22:05;;;;;;;16.65;10.40;;;10.60;99.90;;;;;;5034843;28;20548;-51
2024/03/02 10:24:45;;;;;;;14.60;10.25;;;10.60;99.90;;;;;;5033233;28;20022;-55
2024/03/02 10:27:19;;;;;;;13.55;10.00;;;10.70;99.90;;;;;;5034319;28;20493;-50
2024/03/02 10:29:48;;;;;;;18.35;10.20;;;10.80;99.90;;;;;;5049790;28;20400;-49
2024/03/02 10:32:14;;;;;;;12.10;9.35;;;10.90;99.90;;;;;;5034457;28;20025;-56
2024/03/02 10:34:41;;;;;;;15.27;9.88;;;11.00;99.90;;;;;;5032237;28;20047;-52
2024/03/02 10:37:07;;;;;;;14.88;9.23;;;11.00;99.90;;;;;;5032810;28;20033;-55
2024/03/02 10:39:41;;;;;;;12.02;9.63;;;11.10;99.90;;;;;;5033751;28;20025;-54
2024/03/02 10:42:07;;;;;;;13.45;9.98;;;11.20;99.90;;;;;;5034174;28;20029;-51
2024/03/02 10:44:33;;;;;;;11.65;9.25;;;11.40;99.90;;;;;;5034016;28;20070;-54
2024/03/02 10:47:04;;;;;;;11.43;8.48;;;11.60;99.90;;;;;;5033851;28;20139;-55
2024/03/02 10:49:31;;;;;;;9.70;7.45;;;11.80;99.90;;;;;;5033930;28;20030;-53
2024/03/02 10:52:00;;;;;;;9.57;7.22;;;11.90;99.90;;;;;;5034037;28;20037;-56
2024/03/02 10:54:26;;;;;;;11.27;7.45;;;12.10;99.90;;;;;;5033583;28;20456;-52
2024/03/02 10:56:54;;;;;;;9.85;7.25;;;12.10;99.90;;;;;;5033647;28;20026;-49
2024/03/02 10:59:26;;;;;;;9.80;8.57;;;12.20;99.90;;;;;;5033640;28;20400;-54
2024/03/02 11:01:58;;;;;;;11.07;8.63;;;12.10;99.90;;;;;;5033931;28;20025;-52
2024/03/02 11:04:25;;;;;;;11.82;8.70;;;12.10;99.90;;;;;;5034225;28;20435;-56
2024/03/02 11:06:51;;;;;;;12.60;8.30;;;12.10;99.90;;;;;;5034145;28;20036;-51
2024/03/02 11:09:22;;;;;;;11.60;8.48;;;12.20;99.90;;;;;;5032403;28;20485;-53
2024/03/02 11:12:03;;;;;;;10.52;8.73;;;12.30;99.90;;;;;;5033583;28;20511;-55
2024/03/02 11:14:32;;;;;;;14.88;8.82;;;12.40;99.90;;;;;;5033194;28;20580;-57
2024/03/02 11:16:58;;;;;;;11.15;8.57;;;12.40;99.90;;;;;;5033883;28;20496;-53
2024/03/02 11:19:25;;;;;;;10.45;7.97;;;12.50;99.90;;;;;;5033907;28;20484;-53
2024/03/02 11:21:51;;;;;;;12.00;8.40;;;12.40;99.90;;;;;;5036938;28;20025;-54
2024/03/02 11:24:32;;;;;;;10.70;8.48;;;12.40;99.90;;;;;;5035392;28;20041;-58
2024/03/02 11:27:05;;;;;;;9.45;7.78;;;12.40;99.90;;;;;;5036004;28;20017;-53
2024/03/02 11:29:37;;;;;;;11.82;7.82;;;12.50;99.90;;;;;;5045663;28;20029;-60
2024/03/02 11:32:04;;;;;;;9.90;7.18;;;12.40;99.90;;;;;;5054701;28;20036;-58
2024/03/02 11:34:39;;;;;;;9.50;7.05;;;12.40;99.90;;;;;;5061884;28;20021;-58
2024/03/02 11:37:05;;;;;;;11.47;8.10;;;;;;;;;;5047292;28;20025;-53
2024/03/02 11:39:31;;;;;;;10.63;8.13;;;12.50;99.90;;;;;;5041986;28;20288;-56
2024/03/02 11:41:57;;;;;;;11.77;7.60;;;12.60;99.90;;;;;;5042138;28;20056;-58
2024/03/02 11:44:46;;;;;;;10.52;7.38;;;12.60;99.90;;;;;;5041723;28;20385;-54
2024/03/02 11:47:14;;;;;;;9.50;6.60;;;12.60;99.90;;;;;;5040167;28;20104;-59
2024/03/02 11:49:41;;;;;;;7.80;6.32;;;12.60;99.90;;;;;;5039795;28;20026;-59
2024/03/02 11:52:09;;;;;;;9.05;6.53;;;12.70;99.90;;;;;;5039237;28;20037;-56
2024/03/02 11:54:39;;;;;;;10.73;7.43;;;12.80;99.90;;;;;;5037478;28;20029;-59
2024/03/02 11:57:05;;;;;;;6.13;5.45;;;12.80;99.90;;;;;;5044195;28;20021;-61
2024/03/02 11:59:31;;;;;;;10.48;6.80;;;12.90;99.90;;;;;;5044277;28;20112;-55
2024/03/02 12:01:58;;;;;;;9.93;6.82;;;13.00;99.90;;;;;;5044713;28;20033;-60
2024/03/02 12:04:24;;;;;;;7.97;6.13;;;13.10;99.90;;;;;;5043336;28;20049;-63
2024/03/02 12:06:59;;;;;;;8.50;6.60;;;13.20;99.90;;;;;;5043460;28;20028;-54
2024/03/02 12:09:28;;;;;;;29.83;20.05;;;13.30;99.90;;;;;;5042750;28;20102;-57
2024/03/02 12:12:07;;;;;;;37.85;23.38;;;13.30;99.90;;;;;;5044591;28;20038;-56
2024/03/02 12:14:37;;;;;;;7.65;6.50;;;13.10;99.90;;;;;;5043299;28;20089;-60
2024/03/02 12:17:03;;;;;;;9.20;5.68;;;13.20;99.90;;;;;;5044033;28;20036;-53
2024/03/02 12:19:29;;;;;;;11.75;5.25;;;13.30;99.90;;;;;;5042909;28;20175;-56
2024/03/02 12:21:56;;;;;;;4.93;4.40;;;13.30;99.90;;;;;;5043146;28;20026;-57
2024/03/02 12:24:24;;;;;;;10.50;5.40;;;13.20;99.90;;;;;;5043332;28;20041;-54
2024/03/02 12:26:50;;;;;;;8.60;4.88;;;13.20;99.90;;;;;;5044210;28;20025;-56
2024/03/02 12:29:16;;;;;;;7.47;4.70;;;13.10;99.90;;;;;;5044453;28;20032;-56
2024/03/02 12:31:45;;;;;;;9.73;4.95;;;13.10;99.90;;;;;;5059491;28;20022;-58
2024/03/02 12:34:15;;;;;;;6.95;4.65;;;13.00;99.90;;;;;;5044176;28;20030;-57
2024/03/02 12:36:41;;;;;;;6.47;4.38;;;13.00;99.90;;;;;;5044369;28;20033;-54
2024/03/02 12:39:09;;;;;;;6.90;4.50;;;13.00;99.90;;;;;;5030919;28;20026;-54
2024/03/02 12:41:39;;;;;;;6.78;4.55;;;13.00;99.90;;;;;;5053543;28;20028;-59